Time;durP1;ratioP1;P1;durP2;ratioP2;P2;SDS_P1;SDS_P2;PMS_P1;PMS_P2;Temp;Humidity;BMP_temperature;BMP_pressure;BME280_temperature;BME280_humidity;BME280_pressure;Samples;Min_cycle;Max_cycle;Signal;HPM_P1;HPM_P2
2022/04/28 00:00:21;;;;;;;;;;;;;;;19.63;67.23;99089.56;2080944;28;19933;-51
2022/04/28 00:01:22;;;;;;;;;;;;;;;19.61;67.24;99084.41;2078193;28;20047;-51
2022/04/28 00:02:23;;;;;;;;;;;;;;;19.63;66.61;99084.19;2083394;28;19933;-52
2022/04/28 00:03:24;;;;;;;;;;;;;;;19.62;66.80;99079.84;2079335;28;19940;-50
2022/04/28 00:04:25;;;;;;;;;;;;;;;19.61;66.66;99078.19;2078302;28;19936;-53
2022/04/28 00:05:26;;;;;;;;;;;;;;;19.60;67.10;99082.72;2084410;28;20258;-50
2022/04/28 00:06:28;;;;;;;;;;;;;;;19.61;66.62;99084.41;2080468;28;19928;-52
2022/04/28 00:07:30;;;;;;;;;;;;;;;19.61;66.86;99083.56;2081229;28;20362;-52
2022/04/28 00:08:32;;;;;;;;;;;;;;;19.61;66.44;99080.88;2076932;28;20690;-51
2022/04/28 00:09:33;;;;;;;;;;;;;;;19.60;66.54;99087.28;2076510;28;20379;-51
2022/04/28 00:10:35;;;;;;;;;;;;;;;19.60;66.58;99088.13;2078236;28;19955;-50
2022/04/28 00:11:35;;;;;;;;;;;;;;;19.58;66.58;99092.03;2079864;28;19937;-50
2022/04/28 00:12:38;;;;;;;;;;;;;;;19.59;66.76;99091.03;2078999;28;19929;-51
2022/04/28 00:13:39;;;;;;;;;;;;;;;19.59;67.01;99088.34;2078252;28;19924;-50
2022/04/28 00:14:42;;;;;;;;;;;;;;;19.58;67.28;99082.09;2080452;28;20421;-51
2022/04/28 00:15:45;;;;;;;;;;;;;;;19.58;67.06;99076.72;2073563;28;20329;-50
2022/04/28 00:16:46;;;;;;;;;;;;;;;19.59;67.28;99081.09;2079086;28;19940;-52
2022/04/28 00:17:48;;;;;;;;;;;;;;;19.60;67.09;99081.91;2079998;28;19933;-51
2022/04/28 00:18:48;;;;;;;;;;;;;;;19.58;67.02;99076.72;2077705;28;20222;-51
2022/04/28 00:19:50;;;;;;;;;;;;;;;19.57;66.79;99077.75;2080181;28;19929;-52
2022/04/28 00:20:51;;;;;;;;;;;;;;;19.57;67.12;99083.13;2080426;28;19931;-50
2022/04/28 00:21:53;;;;;;;;;;;;;;;19.57;66.60;99080.44;2077907;28;19929;-50
2022/04/28 00:22:55;;;;;;;;;;;;;;;19.56;66.50;99080.66;2073656;28;19928;-48
2022/04/28 00:23:55;;;;;;;;;;;;;;;19.57;67.02;99085.81;2074585;28;20494;-52
2022/04/28 00:24:57;;;;;;;;;;;;;;;19.56;67.00;99076.09;2079764;28;20008;-51
2022/04/28 00:25:57;;;;;;;;;;;;;;;19.57;66.59;99080.44;2082295;28;20501;-48
2022/04/28 00:26:59;;;;;;;;;;;;;;;19.57;66.92;99076.94;2081419;28;20116;-48
2022/04/28 00:28:01;;;;;;;;;;;;;;;19.57;66.77;99076.94;2079398;28;19933;-52
2022/04/28 00:29:01;;;;;;;;;;;;;;;19.56;66.57;99077.97;2076740;28;19935;-52
2022/04/28 00:30:03;;;;;;;;;;;;;;;19.55;66.71;99077.13;2080823;28;20365;-50
2022/04/28 00:31:04;;;;;;;;;;;;;;;19.55;67.00;99084.34;2079005;28;19933;-52
2022/04/28 00:32:06;;;;;;;;;;;;;;;19.54;66.91;99077.34;2079623;28;19935;-48
2022/04/28 00:33:08;;;;;;;;;;;;;;;19.55;66.71;99079.81;2074010;28;20592;-51
2022/04/28 00:34:08;;;;;;;;;;;;;;;19.54;66.91;99080.03;2077412;28;19936;-48
2022/04/28 00:35:10;;;;;;;;;;;;;;;19.54;67.12;99074.63;2075657;28;19939;-51
2022/04/28 00:36:10;;;;;;;;;;;;;;;19.55;66.58;99084.34;2080433;28;19970;-53
2022/04/28 00:37:13;;;;;;;;;;;;;;;19.55;66.91;99078.97;2073219;28;19929;-50
2022/04/28 00:38:15;;;;;;;;;;;;;;;19.53;66.95;99076.50;2081611;28;19932;-52
2022/04/28 00:39:15;;;;;;;;;;;;;;;19.52;67.08;99077.50;2079405;28;20011;-51
2022/04/28 00:40:17;;;;;;;;;;;;;;;19.53;67.09;99078.34;2079914;28;19929;-49
2022/04/28 00:41:17;;;;;;;;;;;;;;;19.52;66.97;99074.81;2077850;28;19928;-49
2022/04/28 00:42:20;;;;;;;;;;;;;;;19.51;67.49;99086.63;2075745;28;19925;-52
2022/04/28 00:43:26;;;;;;;;;;;;;;;19.50;67.42;99084.13;2078894;28;19929;-52
2022/04/28 00:44:27;;;;;;;;;;;;;;;19.50;66.96;99081.44;2081297;28;20824;-52
2022/04/28 00:45:28;;;;;;;;;;;;;;;19.50;67.16;99082.28;2077915;28;19939;-50
2022/04/28 00:46:29;;;;;;;;;;;;;;;19.50;67.31;99084.97;2080079;28;19948;-49
2022/04/28 00:51:25;;;;;;;;;;;;;;;19.49;66.88;99079.78;2074237;28;20830;-52
2022/04/28 00:52:27;;;;;;;;;;;;;;;19.50;67.10;99090.34;2064668;28;19931;-48
2022/04/28 00:53:30;;;;;;;;;;;;;;;19.50;66.85;99086.81;2077169;28;19976;-50
2022/04/28 00:54:31;;;;;;;;;;;;;;;19.49;66.91;99091.38;2077222;28;20495;-48
2022/04/28 00:55:32;;;;;;;;;;;;;;;19.50;66.58;99086.81;2078862;28;20020;-49
2022/04/28 00:56:33;;;;;;;;;;;;;;;19.49;67.25;99086.00;2080659;28;19932;-51
2022/04/28 00:57:34;;;;;;;;;;;;;;;19.49;67.44;99082.47;2077846;28;20494;-50
2022/04/28 00:58:36;;;;;;;;;;;;;;;19.48;67.22;99083.50;2071026;28;19925;-51
2022/04/28 00:59:38;;;;;;;;;;;;;;;19.47;67.03;99081.84;2076767;28;19933;-49
2022/04/28 01:00:39;;;;;;;;;;;;;;;19.48;67.13;99078.13;2080209;28;19933;-49
2022/04/28 01:01:41;;;;;;;;;;;;;;;19.47;67.49;99084.53;2077256;28;19929;-49
2022/04/28 01:02:41;;;;;;;;;;;;;;;19.47;67.11;99081.84;2079085;28;19967;-50
2022/04/28 01:03:45;;;;;;;;;;;;;;;19.47;66.85;99081.84;2079769;28;20510;-48
2022/04/28 01:04:47;;;;;;;;;;;;;;;19.47;67.07;99081.84;2082149;28;20028;-49
2022/04/28 01:05:47;;;;;;;;;;;;;;;19.47;67.26;99087.22;2078586;28;20489;-51
2022/04/28 01:06:51;;;;;;;;;;;;;;;19.43;67.36;99087.59;2080654;28;19936;-48
2022/04/28 01:07:53;;;;;;;;;;;;;;;19.45;66.73;99089.28;2079114;28;19925;-47
2022/04/28 01:08:56;;;;;;;;;;;;;;;19.45;67.17;99078.53;2078875;28;19942;-52
2022/04/28 01:09:58;;;;;;;;;;;;;;;19.45;67.00;99081.22;2080537;28;19925;-51
2022/04/28 01:10:59;;;;;;;;;;;;;;;19.45;67.33;99081.22;2074710;28;19937;-51
2022/04/28 01:12:00;;;;;;;;;;;;;;;19.46;66.90;99080.19;2079075;28;19925;-52
2022/04/28 01:13:01;;;;;;;;;;;;;;;19.45;67.04;99083.91;2079238;28;19936;-52
2022/04/28 01:14:02;;;;;;;;;;;;;;;19.45;67.01;99073.97;2079417;28;19972;-50
2022/04/28 01:15:05;;;;;;;;;;;;;;;19.43;67.35;99082.22;2077460;28;19978;-52
2022/04/28 01:16:05;;;;;;;;;;;;;;;19.42;67.03;99077.88;2079568;28;19929;-49
2022/04/28 01:17:07;;;;;;;;;;;;;;;19.43;66.93;99078.72;2077764;28;20676;-51
2022/04/28 01:18:07;;;;;;;;;;;;;;;19.43;66.79;99076.03;2073922;28;19933;-48
2022/04/28 01:19:09;;;;;;;;;;;;;;;19.42;67.19;99077.88;2074963;28;20275;-53
2022/04/28 01:20:10;;;;;;;;;;;;;;;19.42;66.94;99080.59;2076794;28;19928;-50
2022/04/28 01:21:13;;;;;;;;;;;;;;;19.41;67.25;99078.91;2077534;28;19967;-52
2022/04/28 01:22:14;;;;;;;;;;;;;;;19.41;67.31;99080.75;2080861;28;20308;-51
2022/04/28 01:23:15;;;;;;;;;;;;;;;19.41;67.29;99084.28;2077308;28;19963;-51
2022/04/28 01:24:17;;;;;;;;;;;;;;;19.39;67.07;99080.97;2081252;28;19983;-50
2022/04/28 01:25:17;;;;;;;;;;;;;;;19.40;67.41;99084.50;2077886;28;20673;-52
2022/04/28 01:26:19;;;;;;;;;;;;;;;19.40;67.41;99079.94;2078505;28;19978;-53
2022/04/28 01:27:20;;;;;;;;;;;;;;;19.39;67.38;99080.97;2077237;28;19932;-51
2022/04/28 01:28:21;;;;;;;;;;;;;;;19.40;66.94;99082.63;2081158;28;19933;-48
2022/04/28 01:29:22;;;;;;;;;;;;;;;19.40;67.16;99082.63;2081437;28;19932;-49
2022/04/28 01:30:24;;;;;;;;;;;;;;;19.40;66.78;99081.81;2077469;28;19930;-48
2022/04/28 01:31:25;;;;;;;;;;;;;;;19.39;67.29;99086.34;2075011;28;19966;-49
2022/04/28 01:32:26;;;;;;;;;;;;;;;19.39;67.02;99083.66;2074766;28;19979;-51
2022/04/28 01:33:27;;;;;;;;;;;;;;;19.38;67.16;99087.38;2076917;28;19936;-50
2022/04/28 01:34:29;;;;;;;;;;;;;;;19.37;67.66;99087.56;2078388;28;20024;-52
2022/04/28 01:35:29;;;;;;;;;;;;;;;19.37;67.44;99088.41;2073684;28;19932;-51
2022/04/28 01:36:32;;;;;;;;;;;;;;;19.37;67.11;99087.56;2077252;28;19929;-48
2022/04/28 01:37:33;;;;;;;;;;;;;;;19.38;66.89;99087.38;2079455;28;19929;-50
2022/04/28 01:38:35;;;;;;;;;;;;;;;19.38;66.79;99087.38;2077420;28;19925;-52
2022/04/28 01:39:35;;;;;;;;;;;;;;;19.40;66.90;99093.38;2076723;28;19931;-50
2022/04/28 01:40:37;;;;;;;;;;;;;;;19.38;66.97;99084.69;2075690;28;20568;-51
2022/04/28 01:41:38;;;;;;;;;;;;;;;19.37;67.24;99088.41;2080697;28;19925;-49
2022/04/28 01:42:40;;;;;;;;;;;;;;;19.37;67.10;99083.03;2075860;28;19924;-52
2022/04/28 01:43:41;;;;;;;;;;;;;;;19.39;66.94;99089.03;2077418;28;20011;-50
2022/04/28 01:44:43;;;;;;;;;;;;;;;19.37;67.28;99088.41;2077983;28;20603;-49
2022/04/28 01:45:43;;;;;;;;;;;;;;;19.35;67.48;99087.75;2083662;28;19929;-49
2022/04/28 01:46:45;;;;;;;;;;;;;;;19.36;67.10;99089.44;2076807;28;20568;-49
2022/04/28 01:47:45;;;;;;;;;;;;;;;19.36;67.04;99086.75;2078420;28;19925;-49
2022/04/28 01:48:47;;;;;;;;;;;;;;;19.35;67.45;99095.84;2080052;28;19987;-51
2022/04/28 01:49:47;;;;;;;;;;;;;;;19.35;67.70;99090.44;2078680;28;19928;-50
2022/04/28 01:54:59;;;;;;;;;;;;;;;19.35;67.26;99087.75;2089182;28;19959;-51
2022/04/28 01:55:59;;;;;;;;;;;;;;;19.34;67.55;99093.34;2088429;28;19925;-50
2022/04/28 01:57:01;;;;;;;;;;;;;;;19.33;66.96;99081.75;2091646;28;20007;-51
2022/04/28 01:58:01;;;;;;;;;;;;;;;19.34;67.73;99086.13;2085164;28;19929;-50
2022/04/28 01:59:03;;;;;;;;;;;;;;;19.34;66.80;99083.41;2079450;28;20392;-51
2022/04/28 02:00:04;;;;;;;;;;;;;;;19.34;67.02;99093.34;2088270;28;20576;-51
2022/04/28 02:01:07;;;;;;;;;;;;;;;19.33;67.18;99084.44;2083943;28;19929;-48
2022/04/28 02:02:08;;;;;;;;;;;;;;;19.33;67.23;99088.97;2090691;28;19931;-48
2022/04/28 02:03:09;;;;;;;;;;;;;;;19.34;67.20;99085.28;2087887;28;19947;-52
2022/04/28 02:04:10;;;;;;;;;;;;;;;19.33;67.54;99089.81;2090716;28;19924;-48
2022/04/28 02:05:12;;;;;;;;;;;;;;;19.34;67.09;99083.41;2088599;28;19928;-48
2022/04/28 02:06:13;;;;;;;;;;;;;;;19.34;67.19;99085.28;2086756;28;19986;-50
2022/04/28 02:07:16;;;;;;;;;;;;;;;19.33;66.80;99084.44;2090518;28;19991;-48
2022/04/28 02:08:16;;;;;;;;;;;;;;;19.33;67.15;99086.28;2084956;28;19955;-52
2022/04/28 02:09:18;;;;;;;;;;;;;;;19.33;67.18;99084.44;2090548;28;19928;-52
2022/04/28 02:10:18;;;;;;;;;;;;;;;19.32;67.15;99085.47;2089349;28;20022;-48
2022/04/28 02:11:20;;;;;;;;;;;;;;;19.31;67.41;99081.13;2089854;28;20302;-50
2022/04/28 02:12:21;;;;;;;;;;;;;;;19.32;67.45;99084.66;2087642;28;20050;-49
2022/04/28 02:13:22;;;;;;;;;;;;;;;19.31;66.92;99086.50;2091117;28;19933;-47
2022/04/28 02:14:23;;;;;;;;;;;;;;;19.29;67.31;99080.50;2087714;28;19947;-48
2022/04/28 02:15:24;;;;;;;;;;;;;;;19.31;67.18;99091.88;2085524;28;19928;-48
2022/04/28 02:16:25;;;;;;;;;;;;;;;19.29;67.60;99079.66;2086440;28;20446;-48
2022/04/28 02:17:27;;;;;;;;;;;;;;;19.30;67.00;99082.13;2090313;28;19925;-49
2022/04/28 02:18:27;;;;;;;;;;;;;;;19.29;67.17;99080.50;2086755;28;20294;-48
2022/04/28 02:19:29;;;;;;;;;;;;;;;19.30;67.76;99089.38;2086816;28;20031;-48
2022/04/28 02:20:29;;;;;;;;;;;;;;;19.28;67.21;99086.91;2087040;28;19932;-49
2022/04/28 02:21:31;;;;;;;;;;;;;;;19.28;67.10;99089.59;2087024;28;19928;-48
2022/04/28 02:22:33;;;;;;;;;;;;;;;19.27;67.53;99093.28;2086244;28;19989;-49
2022/04/28 02:23:34;;;;;;;;;;;;;;;19.27;67.31;99087.09;2079970;27;19983;-49
2022/04/28 02:24:35;;;;;;;;;;;;;;;19.28;67.21;99092.28;2085018;28;19925;-49
2022/04/28 02:25:36;;;;;;;;;;;;;;;19.28;67.37;99089.59;2084525;28;19924;-48
2022/04/28 02:26:37;;;;;;;;;;;;;;;19.28;67.39;99088.75;2090912;28;20058;-50
2022/04/28 02:27:38;;;;;;;;;;;;;;;19.26;67.33;99086.25;2088067;28;20376;-49
2022/04/28 02:28:39;;;;;;;;;;;;;;;19.27;67.28;99090.59;2089548;28;19932;-50
2022/04/28 02:29:40;;;;;;;;;;;;;;;19.27;67.01;99085.22;2084283;28;19936;-50
2022/04/28 02:30:41;;;;;;;;;;;;;;;19.28;67.11;99089.59;2088755;28;20007;-48
2022/04/28 02:31:44;;;;;;;;;;;;;;;19.28;67.16;99091.44;2087158;28;19931;-49
2022/04/28 02:34:04;;;;;;;;;;;;;;;19.25;66.93;99090.00;2072875;28;19990;-50
2022/04/28 02:35:05;;;;;;;;;;;;;;;19.24;66.98;99084.78;2081245;28;20829;-48
2022/04/28 02:36:07;;;;;;;;;;;;;;;19.25;67.33;99087.31;2073302;28;19933;-49
2022/04/28 02:37:07;;;;;;;;;;;;;;;19.23;67.38;99086.66;2078173;28;19929;-48
2022/04/28 02:38:10;;;;;;;;;;;;;;;19.26;66.93;99090.81;2077038;28;19935;-45
2022/04/28 02:39:12;;;;;;;;;;;;;;;19.24;67.52;99082.94;2086185;28;20028;-49
2022/04/28 02:40:16;;;;;;;;;;;;;;;19.24;67.40;99088.31;2088659;28;19984;-51
2022/04/28 02:41:20;;;;;;;;;;;;;;;19.24;67.21;99088.31;2084057;28;19968;-48
2022/04/28 02:42:22;;;;;;;;;;;;;;;19.23;67.43;99088.53;2087452;28;21502;-49
2022/04/28 02:43:23;;;;;;;;;;;;;;;19.23;67.35;99085.84;2087260;28;20020;-50
2022/04/28 02:44:24;;;;;;;;;;;;;;;19.24;67.50;99082.94;2086768;28;20491;-49
2022/04/28 02:45:25;;;;;;;;;;;;;;;19.23;67.56;99092.03;2088558;28;20019;-49
2022/04/28 02:46:27;;;;;;;;;;;;;;;19.22;67.72;99094.91;2084455;28;20545;-49
2022/04/28 02:47:27;;;;;;;;;;;;;;;19.22;67.32;99095.75;2083972;28;19924;-50
2022/04/28 02:48:29;;;;;;;;;;;;;;;19.21;67.30;99094.09;2085128;28;19986;-49
2022/04/28 02:49:29;;;;;;;;;;;;;;;19.23;67.40;99102.78;2086400;28;19944;-49
2022/04/28 02:50:31;;;;;;;;;;;;;;;19.20;67.47;99095.94;2088423;28;20548;-49
2022/04/28 02:51:31;;;;;;;;;;;;;;;19.21;67.50;99094.09;2084206;28;19936;-49
2022/04/28 02:52:33;;;;;;;;;;;;;;;19.19;67.47;99097.00;2087525;28;20464;-48
2022/04/28 02:53:35;;;;;;;;;;;;;;;19.20;67.47;99095.13;2086615;28;19955;-47
2022/04/28 02:54:36;;;;;;;;;;;;;;;19.22;67.44;99100.28;2082703;28;19929;-47
2022/04/28 02:55:39;;;;;;;;;;;;;;;19.19;67.87;99093.44;2078328;28;19932;-50
2022/04/28 02:56:41;;;;;;;;;;;;;;;19.20;67.23;99095.13;2077824;28;19992;-49
2022/04/28 02:57:41;;;;;;;;;;;;;;;19.22;67.25;99101.13;2078567;28;19925;-48
2022/04/28 02:58:43;;;;;;;;;;;;;;;19.21;66.96;99099.47;2079205;28;20529;-48
2022/04/28 02:59:43;;;;;;;;;;;;;;;19.22;67.25;99094.91;2079896;28;20103;-47
2022/04/28 03:00:45;;;;;;;;;;;;;;;19.22;67.11;99097.59;2079578;28;20004;-47
2022/04/28 03:01:45;;;;;;;;;;;;;;;19.21;67.64;99099.47;2082503;28;19940;-50
2022/04/28 03:02:47;;;;;;;;;;;;;;;19.20;67.44;99098.63;2077624;28;19943;-50
2022/04/28 03:03:49;;;;;;;;;;;;;;;19.19;67.82;99096.13;2078672;28;19929;-49
2022/04/28 03:04:49;;;;;;;;;;;;;;;19.18;67.64;99099.84;2079740;28;19929;-49
2022/04/28 03:11:09;;;;;;;;;;;;;;;19.17;67.77;99103.59;2077273;28;19928;-49
2022/04/28 03:12:09;;;;;;;;;;;;;;;19.15;67.43;99103.78;2088841;28;19936;-47
2022/04/28 03:13:11;;;;;;;;;;;;;;;19.15;67.44;99106.47;2086344;28;19935;-46
2022/04/28 03:14:12;;;;;;;;;;;;;;;19.17;67.17;99104.41;2088864;28;20023;-47
2022/04/28 03:15:13;;;;;;;;;;;;;;;19.16;67.16;99099.22;2086250;28;19928;-46
2022/04/28 03:16:14;;;;;;;;;;;;;;;19.17;67.49;99100.91;2087581;28;20051;-49
2022/04/28 03:17:15;;;;;;;;;;;;;;;19.17;67.08;99103.59;2089507;28;19929;-48
2022/04/28 03:18:16;;;;;;;;;;;;;;;19.16;67.80;99101.91;2086076;28;20391;-49
2022/04/28 03:19:17;;;;;;;;;;;;;;;19.18;67.03;99102.53;2088660;28;19928;-49
2022/04/28 03:20:18;;;;;;;;;;;;;;;19.16;67.40;99096.53;2087503;28;19924;-50
2022/04/28 03:21:20;;;;;;;;;;;;;;;19.16;67.59;99104.59;2089923;28;19935;-48
2022/04/28 03:22:21;;;;;;;;;;;;;;;19.14;67.28;99109.38;2085756;28;20423;-49
2022/04/28 03:23:23;;;;;;;;;;;;;;;19.16;67.70;99107.28;2087125;28;19982;-48
2022/04/28 03:24:24;;;;;;;;;;;;;;;19.16;67.48;99107.28;2085464;28;19931;-46
2022/04/28 03:25:27;;;;;;;;;;;;;;;19.14;67.72;99107.50;2089797;28;20294;-47
2022/04/28 03:26:29;;;;;;;;;;;;;;;19.13;67.44;99105.81;2089947;28;19928;-47
2022/04/28 03:27:31;;;;;;;;;;;;;;;19.15;67.91;99103.78;2091814;28;20356;-48
2022/04/28 03:28:35;;;;;;;;;;;;;;;19.13;67.55;99103.13;2090932;28;20371;-48
2022/04/28 03:29:37;;;;;;;;;;;;;;;19.15;67.50;99108.31;2089155;28;19928;-49
2022/04/28 03:30:38;;;;;;;;;;;;;;;19.14;67.09;99109.38;2088403;28;19940;-49
2022/04/28 03:31:39;;;;;;;;;;;;;;;19.14;67.63;99109.38;2087137;28;20379;-47
2022/04/28 03:32:42;;;;;;;;;;;;;;;19.13;67.45;99113.06;2088705;28;19924;-49
2022/04/28 03:33:43;;;;;;;;;;;;;;;19.12;67.76;99114.91;2085552;28;19933;-48
2022/04/28 03:34:44;;;;;;;;;;;;;;;19.12;67.49;99114.09;2089892;28;20015;-47
2022/04/28 03:35:45;;;;;;;;;;;;;;;19.13;67.71;99108.50;2086842;28;20314;-46
2022/04/28 03:36:51;;;;;;;;;;;;;;;19.14;67.19;99115.56;2088286;28;19932;-48
2022/04/28 03:37:53;;;;;;;;;;;;;;;19.11;67.39;99115.97;2088425;28;20466;-48
2022/04/28 03:38:53;;;;;;;;;;;;;;;19.11;67.36;99113.28;2089231;28;19954;-47
2022/04/28 03:39:55;;;;;;;;;;;;;;;19.12;67.26;99114.09;2089024;28;20315;-49
2022/04/28 03:40:58;;;;;;;;;;;;;;;19.10;67.67;99113.44;2081577;28;19929;-49
2022/04/28 03:41:58;;;;;;;;;;;;;;;19.11;67.22;99115.97;2079904;28;20027;-49
2022/04/28 03:43:00;;;;;;;;;;;;;;;19.12;67.38;99122.16;2079116;28;19990;-48
2022/04/28 03:44:01;;;;;;;;;;;;;;;19.12;67.30;99128.38;2079824;28;20840;-47
2022/04/28 03:45:02;;;;;;;;;;;;;;;19.09;67.31;99109.94;2074066;28;19929;-49
2022/04/28 03:46:03;;;;;;;;;;;;;;;19.10;67.17;99111.59;2081447;28;19929;-47
2022/04/28 03:47:05;;;;;;;;;;;;;;;19.10;67.17;99122.34;2076796;28;19979;-49
2022/04/28 03:48:09;;;;;;;;;;;;;;;19.11;67.29;99118.66;2081813;28;20051;-49
2022/04/28 03:49:11;;;;;;;;;;;;;;;19.09;67.13;99117.19;2079432;28;19973;-50
2022/04/28 03:50:11;;;;;;;;;;;;;;;19.11;67.30;99117.78;2079099;28;19925;-49
2022/04/28 03:51:13;;;;;;;;;;;;;;;19.10;67.13;99113.44;2078463;28;20518;-50
2022/04/28 03:52:13;;;;;;;;;;;;;;;19.10;67.38;99118.81;2078368;28;19932;-50
2022/04/28 03:53:15;;;;;;;;;;;;;;;19.10;67.39;99118.81;2079036;28;19933;-48
2022/04/28 03:54:15;;;;;;;;;;;;;;;19.09;67.81;99114.47;2082222;28;19933;-47
2022/04/28 03:55:17;;;;;;;;;;;;;;;19.08;67.36;99115.50;2079480;28;21056;-47
2022/04/28 03:56:19;;;;;;;;;;;;;;;19.06;67.28;99118.38;2082294;28;20528;-47
2022/04/28 03:57:21;;;;;;;;;;;;;;;19.05;67.97;99116.72;2078757;28;19971;-50
2022/04/28 03:58:22;;;;;;;;;;;;;;;19.04;67.54;99125.00;2081793;28;20461;-46
2022/04/28 03:59:23;;;;;;;;;;;;;;;19.05;67.26;99119.41;2077805;28;19995;-49
2022/04/28 04:00:25;;;;;;;;;;;;;;;19.04;67.78;99125.81;2079585;28;19937;-51
2022/04/28 04:01:26;;;;;;;;;;;;;;;19.07;67.23;99121.91;2077688;28;19933;-47
2022/04/28 04:02:27;;;;;;;;;;;;;;;19.05;67.36;99129.31;2081893;28;20483;-48
2022/04/28 04:03:28;;;;;;;;;;;;;;;19.05;67.46;99126.63;2066395;28;19929;-48
2022/04/28 04:04:29;;;;;;;;;;;;;;;19.04;67.77;99125.81;2078955;28;19964;-50
2022/04/28 04:05:32;;;;;;;;;;;;;;;19.04;67.40;99127.69;2078242;28;19933;-46
2022/04/28 04:06:32;;;;;;;;;;;;;;;19.04;67.74;99133.06;2082988;28;19929;-46
2022/04/28 04:07:35;;;;;;;;;;;;;;;19.03;68.14;99126.00;2087691;28;19924;-48
2022/04/28 04:08:36;;;;;;;;;;;;;;;19.03;67.31;99126.00;2086135;28;19941;-47
2022/04/28 04:09:37;;;;;;;;;;;;;;;19.01;67.94;99126.22;2083663;28;20302;-47
2022/04/28 04:10:39;;;;;;;;;;;;;;;19.02;67.70;99127.84;2088985;28;20401;-48
2022/04/28 04:11:42;;;;;;;;;;;;;;;19.01;67.47;99123.50;2086093;28;19936;-47
2022/04/28 04:12:43;;;;;;;;;;;;;;;19.03;67.66;99129.53;2085635;28;19928;-48
2022/04/28 04:13:45;;;;;;;;;;;;;;;19.04;67.67;99127.69;2086905;28;20610;-50
2022/04/28 04:14:47;;;;;;;;;;;;;;;19.06;67.41;99139.06;2085846;28;20036;-47
2022/04/28 04:15:48;;;;;;;;;;;;;;;19.04;67.67;99136.56;2088655;28;20456;-50
2022/04/28 04:16:50;;;;;;;;;;;;;;;19.04;67.17;99125.00;2087793;28;20552;-51
2022/04/28 04:17:51;;;;;;;;;;;;;;;19.03;67.64;99134.91;2082005;28;19985;-47
2022/04/28 04:18:52;;;;;;;;;;;;;;;19.02;67.50;99133.22;2079764;28;19990;-51
2022/04/28 04:19:53;;;;;;;;;;;;;;;19.02;67.57;99132.41;2077540;28;19925;-49
2022/04/28 04:20:54;;;;;;;;;;;;;;;19.00;67.85;99129.94;2077353;28;19929;-50
2022/04/28 04:21:55;;;;;;;;;;;;;;;19.03;67.67;99134.91;2085568;28;19967;-44
2022/04/28 04:22:56;;;;;;;;;;;;;;;19.03;67.46;99132.22;2087672;28;19951;-53
2022/04/28 04:23:57;;;;;;;;;;;;;;;19.02;67.34;99133.22;2087161;28;19929;-51
2022/04/28 04:24:58;;;;;;;;;;;;;;;19.01;67.22;99128.06;2084646;28;21402;-52
2022/04/28 04:26:01;;;;;;;;;;;;;;;19.02;67.47;99135.09;2087449;28;19925;-51
2022/04/28 04:27:04;;;;;;;;;;;;;;;19.02;67.45;99130.53;2079891;28;19925;-51
2022/04/28 04:28:06;;;;;;;;;;;;;;;19.00;67.59;99129.06;2078796;28;19925;-53
2022/04/28 04:29:06;;;;;;;;;;;;;;;19.00;67.84;99123.69;2071627;28;20044;-51
2022/04/28 04:32:46;;;;;;;;;;;;;;;18.97;67.37;99131.16;2091828;28;20404;-50
2022/04/28 04:33:46;;;;;;;;;;;;;;;18.98;67.39;99129.28;2085976;28;19947;-50
2022/04/28 04:34:50;;;;;;;;;;;;;;;18.98;67.56;99132.78;2083194;28;20698;-51
2022/04/28 04:35:50;;;;;;;;;;;;;;;18.98;67.53;99137.34;2089267;28;19925;-51
2022/04/28 04:36:52;;;;;;;;;;;;;;;18.97;67.63;99133.84;2089051;28;20928;-52
2022/04/28 04:37:52;;;;;;;;;;;;;;;18.96;67.58;99129.47;2087625;28;19939;-53
2022/04/28 04:38:54;;;;;;;;;;;;;;;18.98;67.57;99131.97;2087982;28;20027;-54
2022/04/28 04:39:55;;;;;;;;;;;;;;;18.96;67.41;99134.84;2086585;28;19975;-52
2022/04/28 04:40:56;;;;;;;;;;;;;;;18.95;67.49;99127.81;2088725;28;20383;-50
2022/04/28 04:41:57;;;;;;;;;;;;;;;18.94;67.56;99139.59;2086074;28;20047;-51
2022/04/28 04:43:00;;;;;;;;;;;;;;;18.95;67.36;99138.56;2088438;28;20438;-52
2022/04/28 04:44:00;;;;;;;;;;;;;;;18.95;66.96;99133.19;2087224;28;19948;-47
2022/04/28 04:45:02;;;;;;;;;;;;;;;19.10;67.36;99148.41;2088886;28;19929;-53
2022/04/28 04:46:02;;;;;;;;;;;;;;;19.12;67.17;99141.81;2088315;28;19924;-56
2022/04/28 04:47:04;;;;;;;;;;;;;;;19.17;67.46;99143.91;2088271;28;19925;-50
2022/04/28 04:48:05;;;;;;;;;;;;;;;19.18;66.93;99148.25;2083190;28;19932;-46
2022/04/28 04:49:07;;;;;;;;;;;;;;;19.22;66.25;99152.22;2082720;28;19924;-50
2022/04/28 04:50:08;;;;;;;;;;;;;;;19.19;66.26;99145.38;2079173;28;19933;-51
2022/04/28 04:51:10;;;;;;;;;;;;;;;19.17;66.73;99147.44;2083894;28;19929;-50
2022/04/28 04:52:10;;;;;;;;;;;;;;;19.15;66.90;99148.66;2083808;28;19939;-48
2022/04/28 04:53:12;;;;;;;;;;;;;;;19.14;67.15;99147.00;2088418;28;20303;-52
2022/04/28 04:54:12;;;;;;;;;;;;;;;19.15;66.90;99152.16;2089769;28;19943;-53
2022/04/28 04:55:14;;;;;;;;;;;;;;;19.14;66.82;99142.44;2083062;28;20485;-52
2022/04/28 04:56:14;;;;;;;;;;;;;;;19.18;66.80;99149.09;2079435;28;19929;-48
2022/04/28 04:57:16;;;;;;;;;;;;;;;19.19;66.93;99150.78;2074736;28;20410;-50
2022/04/28 04:58:18;;;;;;;;;;;;;;;19.23;66.65;99151.19;2077570;28;19925;-49
2022/04/28 04:59:19;;;;;;;;;;;;;;;19.23;66.40;99153.91;2086811;28;19979;-51
2022/04/28 05:00:20;;;;;;;;;;;;;;;19.24;66.44;99152.84;2089535;28;19928;-51
2022/04/28 05:01:21;;;;;;;;;;;;;;;19.28;66.81;99159.53;2078521;28;19963;-49
2022/04/28 05:02:23;;;;;;;;;;;;;;;19.29;66.77;99154.97;2088629;28;19942;-51
2022/04/28 05:03:24;;;;;;;;;;;;;;;19.28;66.69;99151.47;2087768;28;19936;-50
2022/04/28 05:04:25;;;;;;;;;;;;;;;19.29;66.41;99157.66;2086886;28;20413;-51
2022/04/28 05:05:27;;;;;;;;;;;;;;;19.31;66.70;99151.06;2084542;28;19928;-53
2022/04/28 05:06:27;;;;;;;;;;;;;;;19.30;66.31;99152.06;2087142;28;20703;-48
2022/04/28 05:07:29;;;;;;;;;;;;;;;19.33;66.77;99153.53;2088365;28;20001;-50
2022/04/28 05:08:30;;;;;;;;;;;;;;;19.33;66.80;99151.66;2087235;28;19935;-53
2022/04/28 05:09:31;;;;;;;;;;;;;;;19.34;66.43;99156.03;2086693;28;19931;-53
2022/04/28 05:10:32;;;;;;;;;;;;;;;19.35;66.49;99149.63;2087371;28;19931;-52
2022/04/28 05:11:33;;;;;;;;;;;;;;;19.35;66.47;99152.31;2082068;28;19952;-52
2022/04/28 05:12:34;;;;;;;;;;;;;;;19.35;66.60;99152.31;2080792;28;20020;-52
2022/04/28 05:13:37;;;;;;;;;;;;;;;19.36;66.30;99151.31;2080223;28;19975;-52
2022/04/28 05:14:38;;;;;;;;;;;;;;;19.36;66.13;99148.63;2077759;28;19928;-52
2022/04/28 05:15:39;;;;;;;;;;;;;;;19.38;66.52;99148.41;2081629;28;19925;-49
2022/04/28 05:16:40;;;;;;;;;;;;;;;19.39;66.24;99150.09;2076577;28;19940;-50
2022/04/28 05:17:41;;;;;;;;;;;;;;;19.39;66.29;99158.16;2078071;28;19925;-50
2022/04/28 05:18:43;;;;;;;;;;;;;;;19.41;66.38;99158.78;2079815;28;19925;-53
2022/04/28 05:19:43;;;;;;;;;;;;;;;19.40;66.19;99149.88;2082483;28;20448;-52
2022/04/28 05:20:45;;;;;;;;;;;;;;;19.43;65.97;99151.34;2077448;28;19955;-52
2022/04/28 05:21:45;;;;;;;;;;;;;;;19.45;65.82;99153.84;2081605;28;19936;-50
2022/04/28 05:22:48;;;;;;;;;;;;;;;19.47;66.21;99155.28;2077652;28;20036;-51
2022/04/28 05:23:49;;;;;;;;;;;;;;;19.48;65.98;99164.22;2080412;28;19933;-51
2022/04/28 05:24:50;;;;;;;;;;;;;;;19.50;66.17;99164.81;2077519;28;19936;-51
2022/04/28 05:25:51;;;;;;;;;;;;;;;19.51;65.89;99161.97;2081090;28;19933;-50
2022/04/28 05:26:52;;;;;;;;;;;;;;;19.53;65.95;99165.28;2080132;28;19929;-52
2022/04/28 05:27:53;;;;;;;;;;;;;;;19.54;65.88;99163.44;2078525;28;19925;-52
2022/04/28 05:28:56;;;;;;;;;;;;;;;19.55;65.90;99163.22;2081061;28;20085;-51
2022/04/28 05:29:57;;;;;;;;;;;;;;;19.56;65.75;99164.06;2080555;28;19932;-54
2022/04/28 05:30:58;;;;;;;;;;;;;;;19.57;66.04;99165.72;2079863;28;19937;-51
2022/04/28 05:31:59;;;;;;;;;;;;;;;19.57;65.70;99163.03;2073055;28;19937;-52
2022/04/28 05:33:00;;;;;;;;;;;;;;;19.59;65.97;99166.38;2070477;28;20989;-51
2022/04/28 05:34:01;;;;;;;;;;;;;;;19.58;65.87;99170.06;2082184;28;20015;-53
2022/04/28 05:35:02;;;;;;;;;;;;;;;19.58;65.61;99164.69;2083407;28;20497;-50
2022/04/28 05:36:06;;;;;;;;;;;;;;;19.58;65.52;99165.50;2082475;28;20012;-51
2022/04/28 05:37:08;;;;;;;;;;;;;;;19.59;65.71;99163.66;2089218;28;19967;-49